createdAt,value
2019-06-20T00:11:04.807Z,100970
2019-06-20T00:23:04.803Z,100960
2019-06-20T00:35:04.794Z,100960
2019-06-20T00:47:05.263Z,100960
2019-06-20T00:59:04.746Z,100980
2019-06-20T01:11:04.829Z,100980
2019-06-20T01:23:04.826Z,100990
2019-06-20T01:35:04.840Z,100990
2019-06-20T01:47:04.835Z,100980
2019-06-20T01:59:04.818Z,100980
2019-06-20T02:11:04.793Z,100980
2019-06-20T02:23:04.808Z,100970
2019-06-20T02:35:04.791Z,100980
2019-06-20T02:47:04.829Z,100980
2019-06-20T02:59:04.774Z,101000
2019-06-20T03:11:04.767Z,101020
2019-06-20T03:23:04.806Z,101040
2019-06-20T03:35:04.775Z,101050
2019-06-20T03:47:04.838Z,101060
2019-06-20T03:59:04.779Z,101070
2019-06-20T04:11:04.787Z,101080
2019-06-20T04:23:04.784Z,101090
2019-06-20T04:35:05.284Z,101120
2019-06-20T04:47:04.782Z,101130
2019-06-20T04:59:04.817Z,101130
2019-06-20T05:11:04.792Z,101160
2019-06-20T05:23:04.772Z,101150
2019-06-20T05:35:04.779Z,101150
2019-06-20T05:47:12.227Z,101150
2019-06-20T05:59:04.866Z,101160
2019-06-20T06:11:04.817Z,101150
2019-06-20T06:23:04.778Z,101150
2019-06-20T06:35:04.750Z,101160
2019-06-20T06:47:04.831Z,101160
2019-06-20T06:59:04.813Z,101160
2019-06-20T07:11:04.866Z,101150
2019-06-20T07:23:04.811Z,101140
2019-06-20T07:35:04.775Z,101140
2019-06-20T07:47:17.148Z,101150
2019-06-20T07:59:04.874Z,101160
2019-06-20T08:11:04.793Z,101160
2019-06-20T08:23:04.785Z,101160
2019-06-20T08:35:04.722Z,101170
2019-06-20T08:47:05.866Z,101180
2019-06-20T08:59:04.941Z,101180
2019-06-20T09:11:04.806Z,101180
2019-06-20T09:23:04.781Z,101180
2019-06-20T09:35:04.768Z,101190
2019-06-20T09:47:04.791Z,101190
2019-06-20T09:59:04.768Z,101190
2019-06-20T10:11:04.766Z,101190
2019-06-20T10:23:04.773Z,101190
2019-06-20T15:23:04.828Z,101270
2019-06-20T15:35:04.801Z,101270
2019-06-20T15:47:04.779Z,101260
2019-06-20T15:59:04.798Z,101290
2019-06-20T16:11:04.823Z,101290
2019-06-20T16:23:04.785Z,101300
2019-06-20T16:35:04.806Z,101310
2019-06-20T16:47:04.787Z,101310
2019-06-20T16:59:04.881Z,101340
2019-06-20T17:11:04.786Z,101350
2019-06-20T17:23:04.787Z,101350
2019-06-20T17:35:04.775Z,101360
2019-06-20T17:47:04.780Z,101370
2019-06-20T17:59:04.839Z,101380
2019-06-20T18:11:04.881Z,101390
2019-06-20T18:23:04.808Z,101390
2019-06-20T18:35:04.787Z,101400
2019-06-20T18:47:05.266Z,101410
2019-06-20T18:59:04.784Z,101420
2019-06-20T19:11:04.777Z,101450
2019-06-20T19:23:04.807Z,101480
2019-06-20T19:35:04.884Z,101490
2019-06-20T19:47:04.885Z,101500
2019-06-20T19:59:04.903Z,101510
2019-06-20T20:11:04.997Z,101510
2019-06-20T20:23:04.962Z,101520
2019-06-20T20:35:04.762Z,101520
2019-06-20T20:47:04.802Z,101520
2019-06-20T20:59:04.827Z,101530
2019-06-20T21:11:04.800Z,101550
2019-06-20T21:23:04.825Z,101540
2019-06-20T21:35:04.789Z,101550
2019-06-20T21:47:04.783Z,101580
2019-06-20T21:59:04.859Z,101590
2019-06-20T22:11:04.771Z,101610
2019-06-20T22:23:04.800Z,101610
2019-06-20T22:35:04.781Z,101620
2019-06-20T22:47:04.753Z,101620
2019-06-20T22:59:05.004Z,101620
2019-06-20T23:11:04.804Z,101620
2019-06-20T23:23:04.788Z,101630
2019-06-20T23:35:04.782Z,101630
2019-06-20T23:47:04.803Z,101640
2019-06-20T23:59:04.825Z,101660
